sensor_id;sensor_type;location;lat;lon;timestamp;temperature;humidity
17740;DHT22;8990;33.226;-97.150;2023-04-01T00:01:32;24.30;66.20
17740;DHT22;8990;33.226;-97.150;2023-04-01T00:04:01;24.20;64.20
17740;DHT22;8990;33.226;-97.150;2023-04-01T00:06:30;24.20;65.00
17740;DHT22;8990;33.226;-97.150;2023-04-01T00:08:59;24.10;63.40
17740;DHT22;8990;33.226;-97.150;2023-04-01T00:11:30;24.00;60.90
17740;DHT22;8990;33.226;-97.150;2023-04-01T00:13:59;23.90;64.10
17740;DHT22;8990;33.226;-97.150;2023-04-01T00:16:28;23.90;62.70
17740;DHT22;8990;33.226;-97.150;2023-04-01T00:18:57;23.80;62.00
17740;DHT22;8990;33.226;-97.150;2023-04-01T00:21:26;23.70;62.80
17740;DHT22;8990;33.226;-97.150;2023-04-01T00:23:56;23.70;62.00
17740;DHT22;8990;33.226;-97.150;2023-04-01T00:26:25;23.60;62.40
17740;DHT22;8990;33.226;-97.150;2023-04-01T00:28:55;23.50;62.40
17740;DHT22;8990;33.226;-97.150;2023-04-01T00:31:24;23.50;62.10
17740;DHT22;8990;33.226;-97.150;2023-04-01T00:33:54;23.40;64.10
17740;DHT22;8990;33.226;-97.150;2023-04-01T00:36:23;23.30;63.40
17740;DHT22;8990;33.226;-97.150;2023-04-01T00:38:52;23.20;66.10
17740;DHT22;8990;33.226;-97.150;2023-04-01T00:41:22;23.00;65.80
17740;DHT22;8990;33.226;-97.150;2023-04-01T00:44:16;22.90;65.70
17740;DHT22;8990;33.226;-97.150;2023-04-01T00:46:46;22.80;64.20
17740;DHT22;8990;33.226;-97.150;2023-04-01T00:49:18;22.80;64.80
17740;DHT22;8990;33.226;-97.150;2023-04-01T00:51:50;22.70;65.70
17740;DHT22;8990;33.226;-97.150;2023-04-01T00:54:21;22.50;66.20
17740;DHT22;8990;33.226;-97.150;2023-04-01T00:56:54;22.40;68.30
17740;DHT22;8990;33.226;-97.150;2023-04-01T00:59:29;22.30;65.60
17740;DHT22;8990;33.226;-97.150;2023-04-01T01:01:58;22.20;68.50
17740;DHT22;8990;33.226;-97.150;2023-04-01T01:04:29;22.20;66.60
17740;DHT22;8990;33.226;-97.150;2023-04-01T01:07:07;22.10;65.90
17740;DHT22;8990;33.226;-97.150;2023-04-01T01:09:45;22.10;66.40
17740;DHT22;8990;33.226;-97.150;2023-04-01T01:12:20;22.00;66.10
17740;DHT22;8990;33.226;-97.150;2023-04-01T01:15:02;22.00;66.30
17740;DHT22;8990;33.226;-97.150;2023-04-01T01:17:40;21.90;68.20
17740;DHT22;8990;33.226;-97.150;2023-04-01T01:20:40;21.80;67.50
17740;DHT22;8990;33.226;-97.150;2023-04-01T01:26:49;21.70;67.70
17740;DHT22;8990;33.226;-97.150;2023-04-01T01:29:42;21.60;69.10
17740;DHT22;8990;33.226;-97.150;2023-04-01T01:32:19;21.50;70.70
17740;DHT22;8990;33.226;-97.150;2023-04-01T01:34:55;21.40;70.90
17740;DHT22;8990;33.226;-97.150;2023-04-01T01:37:30;21.40;72.90
17740;DHT22;8990;33.226;-97.150;2023-04-01T01:40:03;21.20;70.60
17740;DHT22;8990;33.226;-97.150;2023-04-01T01:42:37;21.20;72.30
17740;DHT22;8990;33.226;-97.150;2023-04-01T01:45:08;21.00;72.10
17740;DHT22;8990;33.226;-97.150;2023-04-01T01:47:38;20.90;74.60
17740;DHT22;8990;33.226;-97.150;2023-04-01T01:50:10;20.80;75.30
17740;DHT22;8990;33.226;-97.150;2023-04-01T01:52:41;20.80;73.60
17740;DHT22;8990;33.226;-97.150;2023-04-01T01:55:26;20.70;72.60
17740;DHT22;8990;33.226;-97.150;2023-04-01T01:57:59;20.60;73.00
17740;DHT22;8990;33.226;-97.150;2023-04-01T02:00:30;20.60;73.40
17740;DHT22;8990;33.226;-97.150;2023-04-01T02:03:01;20.50;76.30
17740;DHT22;8990;33.226;-97.150;2023-04-01T02:05:30;20.40;77.00
17740;DHT22;8990;33.226;-97.150;2023-04-01T02:08:12;20.40;78.90
17740;DHT22;8990;33.226;-97.150;2023-04-01T02:10:45;20.30;77.50
17740;DHT22;8990;33.226;-97.150;2023-04-01T02:13:21;20.20;79.40
17740;DHT22;8990;33.226;-97.150;2023-04-01T02:15:56;20.10;77.50
17740;DHT22;8990;33.226;-97.150;2023-04-01T02:18:28;20.00;78.00
17740;DHT22;8990;33.226;-97.150;2023-04-01T02:20:59;19.90;77.90
17740;DHT22;8990;33.226;-97.150;2023-04-01T02:23:33;19.90;79.30
17740;DHT22;8990;33.226;-97.150;2023-04-01T02:26:03;19.80;80.50
17740;DHT22;8990;33.226;-97.150;2023-04-01T02:28:34;19.70;81.70
17740;DHT22;8990;33.226;-97.150;2023-04-01T02:31:05;19.60;81.90
17740;DHT22;8990;33.226;-97.150;2023-04-01T02:33:35;19.60;81.00
17740;DHT22;8990;33.226;-97.150;2023-04-01T02:36:06;19.50;80.50
17740;DHT22;8990;33.226;-97.150;2023-04-01T02:38:41;19.40;81.40
17740;DHT22;8990;33.226;-97.150;2023-04-01T02:41:11;19.30;80.80
17740;DHT22;8990;33.226;-97.150;2023-04-01T02:43:40;19.20;79.80
17740;DHT22;8990;33.226;-97.150;2023-04-01T02:46:11;19.10;80.40
17740;DHT22;8990;33.226;-97.150;2023-04-01T02:48:40;19.10;80.90
17740;DHT22;8990;33.226;-97.150;2023-04-01T02:51:09;19.00;80.50
17740;DHT22;8990;33.226;-97.150;2023-04-01T02:53:39;18.90;81.60
17740;DHT22;8990;33.226;-97.150;2023-04-01T02:56:09;18.90;82.00
17740;DHT22;8990;33.226;-97.150;2023-04-01T02:58:38;18.90;81.40
17740;DHT22;8990;33.226;-97.150;2023-04-01T03:01:07;18.80;80.60
17740;DHT22;8990;33.226;-97.150;2023-04-01T03:03:36;18.70;83.20
17740;DHT22;8990;33.226;-97.150;2023-04-01T03:06:09;18.70;86.20
17740;DHT22;8990;33.226;-97.150;2023-04-01T03:08:40;18.60;85.60
17740;DHT22;8990;33.226;-97.150;2023-04-01T03:11:10;18.50;84.60
17740;DHT22;8990;33.226;-97.150;2023-04-01T03:13:39;18.40;83.90
17740;DHT22;8990;33.226;-97.150;2023-04-01T03:16:09;18.30;85.40
17740;DHT22;8990;33.226;-97.150;2023-04-01T03:18:38;18.20;86.20
17740;DHT22;8990;33.226;-97.150;2023-04-01T03:21:15;18.20;86.00
17740;DHT22;8990;33.226;-97.150;2023-04-01T03:23:46;18.00;86.80
17740;DHT22;8990;33.226;-97.150;2023-04-01T03:26:15;17.80;90.60
17740;DHT22;8990;33.226;-97.150;2023-04-01T03:28:45;17.70;92.00
17740;DHT22;8990;33.226;-97.150;2023-04-01T03:31:14;17.60;92.40
17740;DHT22;8990;33.226;-97.150;2023-04-01T03:33:50;17.50;93.10
17740;DHT22;8990;33.226;-97.150;2023-04-01T03:36:19;17.50;93.00
17740;DHT22;8990;33.226;-97.150;2023-04-01T03:38:51;17.30;91.80
17740;DHT22;8990;33.226;-97.150;2023-04-01T03:41:27;17.10;90.00
17740;DHT22;8990;33.226;-97.150;2023-04-01T03:43:56;17.20;90.10
17740;DHT22;8990;33.226;-97.150;2023-04-01T03:46:25;17.30;87.70
17740;DHT22;8990;33.226;-97.150;2023-04-01T03:48:54;17.30;87.50
17740;DHT22;8990;33.226;-97.150;2023-04-01T03:51:23;17.40;86.00
17740;DHT22;8990;33.226;-97.150;2023-04-01T03:53:54;17.40;86.10
17740;DHT22;8990;33.226;-97.150;2023-04-01T03:56:23;17.40;86.90
17740;DHT22;8990;33.226;-97.150;2023-04-01T03:58:53;17.40;87.10
17740;DHT22;8990;33.226;-97.150;2023-04-01T04:01:22;17.40;85.70
17740;DHT22;8990;33.226;-97.150;2023-04-01T04:03:55;17.40;90.50
17740;DHT22;8990;33.226;-97.150;2023-04-01T04:06:25;17.30;90.30
17740;DHT22;8990;33.226;-97.150;2023-04-01T04:08:55;17.30;89.10
17740;DHT22;8990;33.226;-97.150;2023-04-01T04:11:24;17.30;89.00
17740;DHT22;8990;33.226;-97.150;2023-04-01T04:13:54;17.20;89.10
17740;DHT22;8990;33.226;-97.150;2023-04-01T04:16:23;17.20;90.20
17740;DHT22;8990;33.226;-97.150;2023-04-01T04:18:59;17.10;90.10
17740;DHT22;8990;33.226;-97.150;2023-04-01T04:21:28;17.10;89.60
17740;DHT22;8990;33.226;-97.150;2023-04-01T04:24:01;17.10;89.00
17740;DHT22;8990;33.226;-97.150;2023-04-01T04:26:50;17.00;90.00
17740;DHT22;8990;33.226;-97.150;2023-04-01T04:29:19;16.90;89.40
17740;DHT22;8990;33.226;-97.150;2023-04-01T04:31:49;16.90;89.20
17740;DHT22;8990;33.226;-97.150;2023-04-01T04:34:19;16.90;90.90
17740;DHT22;8990;33.226;-97.150;2023-04-01T04:36:49;16.80;91.20
17740;DHT22;8990;33.226;-97.150;2023-04-01T04:39:20;16.70;90.70
17740;DHT22;8990;33.226;-97.150;2023-04-01T04:41:50;16.60;91.00
17740;DHT22;8990;33.226;-97.150;2023-04-01T04:44:19;16.50;91.40
17740;DHT22;8990;33.226;-97.150;2023-04-01T04:46:48;16.60;90.80
17740;DHT22;8990;33.226;-97.150;2023-04-01T04:49:17;16.50;90.30
17740;DHT22;8990;33.226;-97.150;2023-04-01T04:51:46;16.50;90.50
17740;DHT22;8990;33.226;-97.150;2023-04-01T04:54:16;16.50;90.50
17740;DHT22;8990;33.226;-97.150;2023-04-01T04:56:56;16.40;90.80
17740;DHT22;8990;33.226;-97.150;2023-04-01T04:59:27;16.40;89.50
17740;DHT22;8990;33.226;-97.150;2023-04-01T05:02:22;16.50;90.50
17740;DHT22;8990;33.226;-97.150;2023-04-01T05:04:52;16.60;89.00
17740;DHT22;8990;33.226;-97.150;2023-04-01T05:07:21;16.70;86.70
17740;DHT22;8990;33.226;-97.150;2023-04-01T05:09:50;16.70;87.40
17740;DHT22;8990;33.226;-97.150;2023-04-01T05:12:21;16.70;87.00
17740;DHT22;8990;33.226;-97.150;2023-04-01T05:15:00;16.70;88.70
17740;DHT22;8990;33.226;-97.150;2023-04-01T05:17:29;16.70;88.50
17740;DHT22;8990;33.226;-97.150;2023-04-01T05:19:58;16.70;88.70
17740;DHT22;8990;33.226;-97.150;2023-04-01T05:22:28;16.70;89.00
17740;DHT22;8990;33.226;-97.150;2023-04-01T05:24:56;16.60;90.50
17740;DHT22;8990;33.226;-97.150;2023-04-01T05:27:27;16.50;90.70
17740;DHT22;8990;33.226;-97.150;2023-04-01T05:29:56;16.40;90.50
17740;DHT22;8990;33.226;-97.150;2023-04-01T05:32:51;16.40;90.60
17740;DHT22;8990;33.226;-97.150;2023-04-01T05:35:20;16.30;90.20
17740;DHT22;8990;33.226;-97.150;2023-04-01T05:37:49;16.30;90.60
17740;DHT22;8990;33.226;-97.150;2023-04-01T05:40:18;16.30;91.00
17740;DHT22;8990;33.226;-97.150;2023-04-01T05:42:49;16.30;90.80
17740;DHT22;8990;33.226;-97.150;2023-04-01T05:45:18;16.20;90.60
17740;DHT22;8990;33.226;-97.150;2023-04-01T05:47:51;16.20;91.40
17740;DHT22;8990;33.226;-97.150;2023-04-01T05:50:20;16.30;91.50
17740;DHT22;8990;33.226;-97.150;2023-04-01T05:52:49;16.20;90.80
17740;DHT22;8990;33.226;-97.150;2023-04-01T05:55:19;16.10;90.00
17740;DHT22;8990;33.226;-97.150;2023-04-01T05:57:51;16.10;89.70
17740;DHT22;8990;33.226;-97.150;2023-04-01T06:00:20;16.10;90.20
17740;DHT22;8990;33.226;-97.150;2023-04-01T06:02:50;16.10;90.00
17740;DHT22;8990;33.226;-97.150;2023-04-01T06:05:20;16.10;90.40
17740;DHT22;8990;33.226;-97.150;2023-04-01T06:07:51;16.00;90.50
17740;DHT22;8990;33.226;-97.150;2023-04-01T06:10:35;16.00;90.10
17740;DHT22;8990;33.226;-97.150;2023-04-01T06:13:11;16.00;91.20
17740;DHT22;8990;33.226;-97.150;2023-04-01T06:15:50;16.00;92.20
17740;DHT22;8990;33.226;-97.150;2023-04-01T06:22:12;15.90;93.20
17740;DHT22;8990;33.226;-97.150;2023-04-01T06:24:59;15.80;95.30
17740;DHT22;8990;33.226;-97.150;2023-04-01T06:27:47;15.70;95.40
17740;DHT22;8990;33.226;-97.150;2023-04-01T06:30:35;15.50;94.60
17740;DHT22;8990;33.226;-97.150;2023-04-01T06:33:25;15.30;94.70
17740;DHT22;8990;33.226;-97.150;2023-04-01T06:36:19;15.20;95.80
17740;DHT22;8990;33.226;-97.150;2023-04-01T06:42:09;15.00;97.20
17740;DHT22;8990;33.226;-97.150;2023-04-01T06:44:50;14.90;98.40
17740;DHT22;8990;33.226;-97.150;2023-04-01T06:48:05;14.80;96.00
17740;DHT22;8990;33.226;-97.150;2023-04-01T06:51:15;14.70;96.00
17740;DHT22;8990;33.226;-97.150;2023-04-01T06:54:20;14.60;96.60
17740;DHT22;8990;33.226;-97.150;2023-04-01T06:57:16;14.50;95.60
17740;DHT22;8990;33.226;-97.150;2023-04-01T06:59:49;14.50;95.10
17740;DHT22;8990;33.226;-97.150;2023-04-01T07:02:25;14.50;95.90
17740;DHT22;8990;33.226;-97.150;2023-04-01T07:05:00;14.40;94.30
17740;DHT22;8990;33.226;-97.150;2023-04-01T07:07:35;14.40;93.50
17740;DHT22;8990;33.226;-97.150;2023-04-01T07:10:14;14.40;93.60
17740;DHT22;8990;33.226;-97.150;2023-04-01T07:13:06;14.50;93.90
17740;DHT22;8990;33.226;-97.150;2023-04-01T07:15:59;14.50;93.10
17740;DHT22;8990;33.226;-97.150;2023-04-01T07:18:38;14.50;94.40
17740;DHT22;8990;33.226;-97.150;2023-04-01T07:21:20;14.50;93.60
17740;DHT22;8990;33.226;-97.150;2023-04-01T07:23:52;14.50;92.90
17740;DHT22;8990;33.226;-97.150;2023-04-01T07:26:46;14.40;92.80
17740;DHT22;8990;33.226;-97.150;2023-04-01T07:29:22;14.50;92.50
17740;DHT22;8990;33.226;-97.150;2023-04-01T07:32:17;14.50;92.90
17740;DHT22;8990;33.226;-97.150;2023-04-01T07:34:57;14.50;92.50
17740;DHT22;8990;33.226;-97.150;2023-04-01T07:37:36;14.50;92.60
17740;DHT22;8990;33.226;-97.150;2023-04-01T07:40:18;14.50;92.80
17740;DHT22;8990;33.226;-97.150;2023-04-01T07:43:07;14.50;92.90
17740;DHT22;8990;33.226;-97.150;2023-04-01T07:45:51;14.40;92.50
17740;DHT22;8990;33.226;-97.150;2023-04-01T07:48:26;14.40;92.30
17740;DHT22;8990;33.226;-97.150;2023-04-01T07:51:02;14.40;92.20
17740;DHT22;8990;33.226;-97.150;2023-04-01T07:53:38;14.40;92.50
17740;DHT22;8990;33.226;-97.150;2023-04-01T07:56:14;14.30;92.00
17740;DHT22;8990;33.226;-97.150;2023-04-01T07:58:52;14.20;92.10
17740;DHT22;8990;33.226;-97.150;2023-04-01T08:01:52;14.20;92.10
17740;DHT22;8990;33.226;-97.150;2023-04-01T08:04:32;14.20;92.50
17740;DHT22;8990;33.226;-97.150;2023-04-01T08:07:10;14.20;93.20
17740;DHT22;8990;33.226;-97.150;2023-04-01T08:10:07;14.20;92.80
17740;DHT22;8990;33.226;-97.150;2023-04-01T08:13:15;14.20;92.60
17740;DHT22;8990;33.226;-97.150;2023-04-01T08:16:11;14.20;92.70
17740;DHT22;8990;33.226;-97.150;2023-04-01T08:18:54;14.30;92.30
17740;DHT22;8990;33.226;-97.150;2023-04-01T08:21:28;14.20;91.80
17740;DHT22;8990;33.226;-97.150;2023-04-01T08:23:58;14.30;91.60
17740;DHT22;8990;33.226;-97.150;2023-04-01T08:26:35;14.30;91.50
17740;DHT22;8990;33.226;-97.150;2023-04-01T08:29:11;14.30;92.50
17740;DHT22;8990;33.226;-97.150;2023-04-01T08:31:48;14.30;91.70
17740;DHT22;8990;33.226;-97.150;2023-04-01T08:34:20;14.30;91.60
17740;DHT22;8990;33.226;-97.150;2023-04-01T08:36:52;14.40;91.60
17740;DHT22;8990;33.226;-97.150;2023-04-01T08:39:30;14.30;91.20
17740;DHT22;8990;33.226;-97.150;2023-04-01T08:42:32;14.30;91.30
17740;DHT22;8990;33.226;-97.150;2023-04-01T08:45:55;14.30;90.90
17740;DHT22;8990;33.226;-97.150;2023-04-01T08:48:41;14.40;91.20
17740;DHT22;8990;33.226;-97.150;2023-04-01T08:55:00;14.40;90.80
17740;DHT22;8990;33.226;-97.150;2023-04-01T08:58:04;14.50;90.70
17740;DHT22;8990;33.226;-97.150;2023-04-01T09:00:49;14.50;90.30
17740;DHT22;8990;33.226;-97.150;2023-04-01T09:04:14;14.60;90.40
17740;DHT22;8990;33.226;-97.150;2023-04-01T09:07:00;14.50;90.00
17740;DHT22;8990;33.226;-97.150;2023-04-01T09:12:48;14.70;89.70
17740;DHT22;8990;33.226;-97.150;2023-04-01T09:24:22;14.60;90.40
17740;DHT22;8990;33.226;-97.150;2023-04-01T09:27:04;14.60;90.30
17740;DHT22;8990;33.226;-97.150;2023-04-01T09:29:53;14.50;90.20
17740;DHT22;8990;33.226;-97.150;2023-04-01T09:32:42;14.50;90.50
17740;DHT22;8990;33.226;-97.150;2023-04-01T09:35:23;14.40;91.00
17740;DHT22;8990;33.226;-97.150;2023-04-01T09:38:04;14.40;91.10
17740;DHT22;8990;33.226;-97.150;2023-04-01T09:40:43;14.20;90.80
17740;DHT22;8990;33.226;-97.150;2023-04-01T09:43:33;14.20;91.00
17740;DHT22;8990;33.226;-97.150;2023-04-01T09:46:16;14.20;91.30
17740;DHT22;8990;33.226;-97.150;2023-04-01T09:49:18;14.20;91.20
17740;DHT22;8990;33.226;-97.150;2023-04-01T09:52:00;14.30;92.10
17740;DHT22;8990;33.226;-97.150;2023-04-01T09:54:42;14.20;91.80
17740;DHT22;8990;33.226;-97.150;2023-04-01T10:01:18;14.50;90.20
17740;DHT22;8990;33.226;-97.150;2023-04-01T10:13:36;15.00;88.80
17740;DHT22;8990;33.226;-97.150;2023-04-01T10:19:39;15.00;90.20
17740;DHT22;8990;33.226;-97.150;2023-04-01T10:32:02;14.80;90.70
17740;DHT22;8990;33.226;-97.150;2023-04-01T10:35:14;14.70;91.30
17740;DHT22;8990;33.226;-97.150;2023-04-01T10:41:37;14.60;91.40
17740;DHT22;8990;33.226;-97.150;2023-04-01T10:51:21;14.40;92.40
17740;DHT22;8990;33.226;-97.150;2023-04-01T10:54:21;14.30;92.60
17740;DHT22;8990;33.226;-97.150;2023-04-01T10:57:45;14.20;93.00
17740;DHT22;8990;33.226;-97.150;2023-04-01T11:23:54;13.70;93.90
17740;DHT22;8990;33.226;-97.150;2023-04-01T11:26:43;13.70;94.10
17740;DHT22;8990;33.226;-97.150;2023-04-01T11:29:40;13.70;94.10
17740;DHT22;8990;33.226;-97.150;2023-04-01T11:38:49;13.50;95.10
17740;DHT22;8990;33.226;-97.150;2023-04-01T11:41:45;13.50;94.80
17740;DHT22;8990;33.226;-97.150;2023-04-01T11:44:42;13.40;95.10
17740;DHT22;8990;33.226;-97.150;2023-04-01T11:47:30;13.40;95.10
17740;DHT22;8990;33.226;-97.150;2023-04-01T11:50:21;13.30;95.70
17740;DHT22;8990;33.226;-97.150;2023-04-01T11:53:14;13.30;96.20
17740;DHT22;8990;33.226;-97.150;2023-04-01T11:56:01;13.20;96.20
17740;DHT22;8990;33.226;-97.150;2023-04-01T11:58:54;13.10;96.70
17740;DHT22;8990;33.226;-97.150;2023-04-01T12:01:33;13.10;96.20
17740;DHT22;8990;33.226;-97.150;2023-04-01T12:07:24;13.00;96.20
17740;DHT22;8990;33.226;-97.150;2023-04-01T12:10:04;13.00;96.40
17740;DHT22;8990;33.226;-97.150;2023-04-01T12:12:40;12.90;96.60
17740;DHT22;8990;33.226;-97.150;2023-04-01T12:15:22;12.90;97.00
17740;DHT22;8990;33.226;-97.150;2023-04-01T12:18:00;12.90;96.70
17740;DHT22;8990;33.226;-97.150;2023-04-01T12:20:41;12.80;96.70
17740;DHT22;8990;33.226;-97.150;2023-04-01T12:26:21;12.80;97.50
17740;DHT22;8990;33.226;-97.150;2023-04-01T12:29:07;12.80;97.60
17740;DHT22;8990;33.226;-97.150;2023-04-01T12:31:49;12.80;97.10
17740;DHT22;8990;33.226;-97.150;2023-04-01T12:34:33;12.80;98.50
17740;DHT22;8990;33.226;-97.150;2023-04-01T12:37:15;12.80;98.40
17740;DHT22;8990;33.226;-97.150;2023-04-01T12:40:09;12.80;98.40
17740;DHT22;8990;33.226;-97.150;2023-04-01T12:43:07;12.70;97.90
17740;DHT22;8990;33.226;-97.150;2023-04-01T12:45:47;12.70;99.80
17740;DHT22;8990;33.226;-97.150;2023-04-01T12:48:37;12.70;99.90
17740;DHT22;8990;33.226;-97.150;2023-04-01T12:51:24;12.60;99.90
17740;DHT22;8990;33.226;-97.150;2023-04-01T12:54:20;12.60;99.90
17740;DHT22;8990;33.226;-97.150;2023-04-01T12:56:59;12.60;99.90
17740;DHT22;8990;33.226;-97.150;2023-04-01T12:59:52;12.50;99.90
17740;DHT22;8990;33.226;-97.150;2023-04-01T13:02:37;12.60;99.90
17740;DHT22;8990;33.226;-97.150;2023-04-01T13:05:33;12.70;99.90
17740;DHT22;8990;33.226;-97.150;2023-04-01T13:08:21;12.80;99.90
17740;DHT22;8990;33.226;-97.150;2023-04-01T13:11:07;12.80;99.90
17740;DHT22;8990;33.226;-97.150;2023-04-01T13:16:53;12.90;99.90
17740;DHT22;8990;33.226;-97.150;2023-04-01T13:19:30;13.00;99.90
17740;DHT22;8990;33.226;-97.150;2023-04-01T13:22:06;13.10;99.90
17740;DHT22;8990;33.226;-97.150;2023-04-01T13:24:42;13.10;99.90
17740;DHT22;8990;33.226;-97.150;2023-04-01T13:27:18;13.30;99.90
17740;DHT22;8990;33.226;-97.150;2023-04-01T13:30:02;13.30;99.90
17740;DHT22;8990;33.226;-97.150;2023-04-01T13:32:39;13.40;99.90
17740;DHT22;8990;33.226;-97.150;2023-04-01T13:35:21;13.60;99.90
17740;DHT22;8990;33.226;-97.150;2023-04-01T13:38:22;13.60;99.90
17740;DHT22;8990;33.226;-97.150;2023-04-01T13:41:01;13.90;99.80
17740;DHT22;8990;33.226;-97.150;2023-04-01T13:43:38;14.00;99.30
17740;DHT22;8990;33.226;-97.150;2023-04-01T13:46:28;14.20;99.80
17740;DHT22;8990;33.226;-97.150;2023-04-01T13:49:34;14.30;99.40
17740;DHT22;8990;33.226;-97.150;2023-04-01T13:52:37;14.40;99.90
17740;DHT22;8990;33.226;-97.150;2023-04-01T13:55:29;14.50;99.40
17740;DHT22;8990;33.226;-97.150;2023-04-01T13:58:35;14.70;99.10
17740;DHT22;8990;33.226;-97.150;2023-04-01T14:01:11;14.80;99.70
17740;DHT22;8990;33.226;-97.150;2023-04-01T14:06:49;15.10;98.80
17740;DHT22;8990;33.226;-97.150;2023-04-01T14:12:27;15.40;98.30
17740;DHT22;8990;33.226;-97.150;2023-04-01T14:15:15;15.40;98.40
17740;DHT22;8990;33.226;-97.150;2023-04-01T14:17:56;15.50;97.30
17740;DHT22;8990;33.226;-97.150;2023-04-01T14:20:40;15.60;98.00
17740;DHT22;8990;33.226;-97.150;2023-04-01T14:26:50;15.80;97.70
17740;DHT22;8990;33.226;-97.150;2023-04-01T14:29:30;15.90;97.60
17740;DHT22;8990;33.226;-97.150;2023-04-01T14:32:11;16.00;97.40
17740;DHT22;8990;33.226;-97.150;2023-04-01T14:34:55;16.00;96.50
17740;DHT22;8990;33.226;-97.150;2023-04-01T14:37:48;16.10;96.00
17740;DHT22;8990;33.226;-97.150;2023-04-01T14:40:27;16.30;97.80
17740;DHT22;8990;33.226;-97.150;2023-04-01T14:43:10;16.40;96.60
17740;DHT22;8990;33.226;-97.150;2023-04-01T14:48:52;16.30;96.10
17740;DHT22;8990;33.226;-97.150;2023-04-01T14:51:31;16.30;96.80
17740;DHT22;8990;33.226;-97.150;2023-04-01T14:54:04;16.30;97.00
17740;DHT22;8990;33.226;-97.150;2023-04-01T14:56:37;16.50;96.80
17740;DHT22;8990;33.226;-97.150;2023-04-01T14:59:13;16.60;97.70
17740;DHT22;8990;33.226;-97.150;2023-04-01T15:01:49;16.70;97.00
17740;DHT22;8990;33.226;-97.150;2023-04-01T15:04:43;16.70;96.30
17740;DHT22;8990;33.226;-97.150;2023-04-01T15:10:12;16.90;95.50
17740;DHT22;8990;33.226;-97.150;2023-04-01T15:12:51;16.90;95.40
17740;DHT22;8990;33.226;-97.150;2023-04-01T15:15:32;17.00;95.30
17740;DHT22;8990;33.226;-97.150;2023-04-01T15:18:09;17.10;95.20
17740;DHT22;8990;33.226;-97.150;2023-04-01T15:21:02;17.10;95.10
17740;DHT22;8990;33.226;-97.150;2023-04-01T15:23:45;17.10;95.70
17740;DHT22;8990;33.226;-97.150;2023-04-01T15:26:57;17.10;95.00
17740;DHT22;8990;33.226;-97.150;2023-04-01T15:29:40;17.10;95.90
17740;DHT22;8990;33.226;-97.150;2023-04-01T15:32:17;17.20;96.70
17740;DHT22;8990;33.226;-97.150;2023-04-01T15:34:53;17.20;95.40
17740;DHT22;8990;33.226;-97.150;2023-04-01T15:37:32;17.50;96.60
17740;DHT22;8990;33.226;-97.150;2023-04-01T15:40:15;17.70;97.20
17740;DHT22;8990;33.226;-97.150;2023-04-01T15:43:00;17.80;95.50
17740;DHT22;8990;33.226;-97.150;2023-04-01T15:45:40;17.80;95.30
17740;DHT22;8990;33.226;-97.150;2023-04-01T15:48:40;17.80;94.90
17740;DHT22;8990;33.226;-97.150;2023-04-01T15:51:30;17.80;94.90
17740;DHT22;8990;33.226;-97.150;2023-04-01T15:57:15;18.00;95.10
17740;DHT22;8990;33.226;-97.150;2023-04-01T16:00:00;18.00;95.10
17740;DHT22;8990;33.226;-97.150;2023-04-01T16:02:46;18.20;95.20
17740;DHT22;8990;33.226;-97.150;2023-04-01T16:05:33;18.10;95.20
17740;DHT22;8990;33.226;-97.150;2023-04-01T16:08:21;18.20;94.40
17740;DHT22;8990;33.226;-97.150;2023-04-01T16:11:14;18.30;94.80
17740;DHT22;8990;33.226;-97.150;2023-04-01T16:13:55;18.40;94.90
17740;DHT22;8990;33.226;-97.150;2023-04-01T16:16:38;18.50;94.10
17740;DHT22;8990;33.226;-97.150;2023-04-01T16:19:29;18.60;95.30
17740;DHT22;8990;33.226;-97.150;2023-04-01T16:22:07;18.70;94.50
17740;DHT22;8990;33.226;-97.150;2023-04-01T16:24:43;18.70;95.50
17740;DHT22;8990;33.226;-97.150;2023-04-01T16:27:18;18.80;96.10
17740;DHT22;8990;33.226;-97.150;2023-04-01T16:29:55;18.90;94.50
17740;DHT22;8990;33.226;-97.150;2023-04-01T16:32:41;18.90;94.70
17740;DHT22;8990;33.226;-97.150;2023-04-01T16:35:23;18.90;94.80
17740;DHT22;8990;33.226;-97.150;2023-04-01T16:38:01;19.00;95.90
17740;DHT22;8990;33.226;-97.150;2023-04-01T16:40:42;19.00;94.90
17740;DHT22;8990;33.226;-97.150;2023-04-01T16:43:20;19.10;95.30
17740;DHT22;8990;33.226;-97.150;2023-04-01T16:46:09;19.00;94.70
17740;DHT22;8990;33.226;-97.150;2023-04-01T16:48:54;19.30;96.10
17740;DHT22;8990;33.226;-97.150;2023-04-01T16:51:35;19.30;94.90
17740;DHT22;8990;33.226;-97.150;2023-04-01T16:54:17;19.30;95.20
17740;DHT22;8990;33.226;-97.150;2023-04-01T16:56:50;19.30;99.90
17740;DHT22;8990;33.226;-97.150;2023-04-01T16:59:25;19.30;94.50
17740;DHT22;8990;33.226;-97.150;2023-04-01T17:02:02;19.40;93.70
17740;DHT22;8990;33.226;-97.150;2023-04-01T17:04:36;19.50;93.80
17740;DHT22;8990;33.226;-97.150;2023-04-01T17:07:16;19.60;93.70
17740;DHT22;8990;33.226;-97.150;2023-04-01T17:10:02;19.70;93.90
17740;DHT22;8990;33.226;-97.150;2023-04-01T17:12:37;19.80;93.20
17740;DHT22;8990;33.226;-97.150;2023-04-01T17:15:19;19.90;92.30
17740;DHT22;8990;33.226;-97.150;2023-04-01T17:17:56;20.00;94.40
17740;DHT22;8990;33.226;-97.150;2023-04-01T17:20:36;19.90;94.10
17740;DHT22;8990;33.226;-97.150;2023-04-01T17:23:16;20.00;94.40
17740;DHT22;8990;33.226;-97.150;2023-04-01T17:26:00;20.10;94.10
17740;DHT22;8990;33.226;-97.150;2023-04-01T17:28:37;20.20;95.00
17740;DHT22;8990;33.226;-97.150;2023-04-01T17:31:30;20.20;93.30
17740;DHT22;8990;33.226;-97.150;2023-04-01T17:34:18;20.30;93.60
17740;DHT22;8990;33.226;-97.150;2023-04-01T17:37:15;20.40;94.90
17740;DHT22;8990;33.226;-97.150;2023-04-01T17:39:57;20.60;95.70
17740;DHT22;8990;33.226;-97.150;2023-04-01T17:42:39;20.70;93.70
17740;DHT22;8990;33.226;-97.150;2023-04-01T17:45:16;20.70;94.80
17740;DHT22;8990;33.226;-97.150;2023-04-01T17:48:08;20.90;93.30
17740;DHT22;8990;33.226;-97.150;2023-04-01T17:50:52;20.80;93.00
17740;DHT22;8990;33.226;-97.150;2023-04-01T17:53:30;20.70;94.80
17740;DHT22;8990;33.226;-97.150;2023-04-01T17:56:20;20.80;95.00
17740;DHT22;8990;33.226;-97.150;2023-04-01T17:59:00;20.80;94.60
17740;DHT22;8990;33.226;-97.150;2023-04-01T18:01:42;20.80;94.30
17740;DHT22;8990;33.226;-97.150;2023-04-01T18:04:46;20.80;93.80
17740;DHT22;8990;33.226;-97.150;2023-04-01T18:07:33;20.90;93.60
17740;DHT22;8990;33.226;-97.150;2023-04-01T18:10:21;20.80;93.60
17740;DHT22;8990;33.226;-97.150;2023-04-01T18:13:16;20.90;94.60
17740;DHT22;8990;33.226;-97.150;2023-04-01T18:15:58;21.20;94.50
17740;DHT22;8990;33.226;-97.150;2023-04-01T18:18:50;21.20;95.30
17740;DHT22;8990;33.226;-97.150;2023-04-01T18:21:31;21.30;94.30
17740;DHT22;8990;33.226;-97.150;2023-04-01T18:24:14;21.50;94.40
17740;DHT22;8990;33.226;-97.150;2023-04-01T18:26:48;21.60;94.80
17740;DHT22;8990;33.226;-97.150;2023-04-01T18:29:26;21.50;95.60
17740;DHT22;8990;33.226;-97.150;2023-04-01T18:32:11;21.50;94.80
17740;DHT22;8990;33.226;-97.150;2023-04-01T18:34:51;21.50;94.00